Time;durP1;ratioP1;P1;durP2;ratioP2;P2;SDS_P1;SDS_P2;PMS_P1;PMS_P2;Temp;Humidity;BMP_temperature;BMP_pressure;BME280_temperature;BME280_humidity;BME280_pressure;Samples;Min_cycle;Max_cycle;Signal;HPM_P1;HPM_P2
2022/10/02 00:01:15;;;;;;;8.05;7.25;;;19.00;63.00;;;;;;5978988;23;20178;-83
2022/10/02 00:03:45;;;;;;;7.72;7.00;;;18.90;62.90;;;;;;6003701;23;20161;-83
2022/10/02 00:06:21;;;;;;;8.30;7.50;;;19.00;62.90;;;;;;6005294;23;20194;-83
2022/10/02 00:08:53;;;;;;;7.88;7.07;;;19.00;63.00;;;;;;6028986;23;20760;-83
2022/10/02 00:11:43;;;;;;;8.20;7.40;;;19.00;62.90;;;;;;6027804;23;20161;-83
2022/10/02 00:14:16;;;;;;;8.40;7.60;;;19.00;63.00;;;;;;6007308;23;20196;-83
2022/10/02 00:16:51;;;;;;;8.48;7.60;;;18.90;63.00;;;;;;5992604;23;20154;-83
2022/10/02 00:19:18;;;;;;;8.40;7.60;;;19.00;63.20;;;;;;6090001;23;20152;-84
2022/10/02 00:22:03;;;;;;;8.13;7.32;;;19.00;63.00;;;;;;6134486;23;20176;-83
2022/10/02 00:24:36;;;;;;;8.57;7.70;;;19.00;63.00;;;;;;6163906;23;20201;-83
2022/10/02 00:27:38;;;;;;;8.35;7.53;;;18.90;63.00;;;;;;6204807;23;20146;-83
2022/10/02 00:30:04;;;;;;;7.65;6.88;;;19.00;63.00;;;;;;6204591;23;20169;-83
2022/10/02 00:32:47;;;;;;;8.07;7.28;;;19.00;63.00;;;;;;6156404;23;20575;-83
2022/10/02 00:35:36;;;;;;;8.30;7.50;;;18.90;63.20;;;;;;6110190;23;20158;-83
2022/10/02 00:38:28;;;;;;;8.18;7.38;;;18.90;63.00;;;;;;6167962;23;20711;-84
2022/10/02 00:41:32;;;;;;;8.50;7.57;;;18.90;63.00;;;;;;6123167;23;20152;-84
2022/10/02 00:44:25;;;;;;;8.27;7.38;;;18.90;64.00;;;;;;6144454;23;20143;-84
2022/10/02 00:47:11;;;;;;;9.10;8.20;;;18.90;63.00;;;;;;6088381;23;20152;-84
2022/10/02 00:49:50;;;;;;;8.40;7.50;;;18.90;63.10;;;;;;6040422;23;20188;-84
2022/10/02 00:52:48;;;;;;;8.82;7.93;;;18.90;63.10;;;;;;6039187;23;20149;-83
2022/10/02 00:55:42;;;;;;;8.25;7.45;;;18.90;63.00;;;;;;6029410;23;20155;-83
2022/10/02 00:58:39;;;;;;;8.43;7.38;;;19.00;63.30;;;;;;6046011;23;20161;-83
2022/10/02 01:01:19;;;;;;;8.27;7.47;;;19.00;63.20;;;;;;6045466;23;20235;-83
2022/10/02 01:03:55;;;;;;;8.02;7.22;;;18.90;63.20;;;;;;6039529;23;20160;-83
2022/10/02 01:06:29;;;;;;;8.52;7.65;;;18.90;63.10;;;;;;6038631;23;20204;-83
2022/10/02 01:09:00;;;;;;;8.32;7.47;;;18.90;63.20;;;;;;6023368;23;20233;-83
2022/10/02 01:11:34;;;;;;;8.30;7.50;;;18.90;63.20;;;;;;6057150;23;20161;-83
2022/10/02 01:14:04;;;;;;;8.70;7.82;;;18.90;63.20;;;;;;5986601;23;20153;-83
2022/10/02 01:16:34;;;;;;;8.55;7.60;;;18.90;63.20;;;;;;6009366;23;20154;-83
2022/10/02 01:19:01;;;;;;;8.20;7.40;;;18.90;63.20;;;;;;6066860;23;20171;-83
2022/10/02 01:21:35;;;;;;;8.57;7.68;;;18.90;63.30;;;;;;6112997;23;20171;-83
2022/10/02 01:24:09;;;;;;;9.05;8.15;;;18.90;63.30;;;;;;6085436;23;20196;-83
2022/10/02 01:26:44;;;;;;;8.30;7.50;;;18.90;63.30;;;;;;6085400;23;20147;-83
2022/10/02 01:29:15;;;;;;;8.32;7.50;;;18.90;63.20;;;;;;6109079;23;20212;-83
2022/10/02 01:31:45;;;;;;;9.00;8.10;;;18.80;63.20;;;;;;6038262;23;20216;-83
2022/10/02 01:34:17;;;;;;;8.32;7.53;;;18.90;63.30;;;;;;6028427;23;20609;-83
2022/10/02 01:36:54;;;;;;;8.60;7.80;;;18.90;63.30;;;;;;5995895;23;20152;-83
2022/10/02 01:39:20;;;;;;;8.50;7.63;;;18.90;63.40;;;;;;6060129;23;20239;-83
2022/10/02 01:41:54;;;;;;;8.52;7.63;;;18.80;63.30;;;;;;6060958;23;20160;-83
2022/10/02 01:44:26;;;;;;;8.82;7.93;;;18.90;63.40;;;;;;6086881;23;20152;-84
2022/10/02 01:47:07;;;;;;;8.25;7.45;;;18.90;63.40;;;;;;6013662;23;20157;-83
2022/10/02 01:50:11;;;;;;;9.10;8.13;;;18.90;63.30;;;;;;6026702;23;20200;-83
2022/10/02 01:52:52;;;;;;;8.68;7.78;;;18.90;63.40;;;;;;6047906;23;20218;-83
2022/10/02 01:55:35;;;;;;;8.15;7.35;;;18.80;63.40;;;;;;6008182;23;20139;-83
2022/10/02 01:58:39;;;;;;;8.20;7.40;;;18.90;63.50;;;;;;5997164;24;20178;-83
2022/10/02 02:01:22;;;;;;;8.48;7.55;;;18.80;63.90;;;;;;5997105;24;20188;-83
2022/10/02 02:04:08;;;;;;;8.95;8.05;;;18.80;63.40;;;;;;5998455;23;20654;-83
2022/10/02 02:06:54;;;;;;;9.30;8.30;;;18.90;63.50;;;;;;6000984;23;20248;-83
2022/10/02 02:09:43;;;;;;;8.40;7.50;;;18.80;63.40;;;;;;6024747;23;20249;-83
2022/10/02 02:12:19;;;;;;;8.32;7.53;;;18.90;63.50;;;;;;6024885;23;20588;-83
2022/10/02 02:14:52;;;;;;;8.75;7.85;;;18.80;63.50;;;;;;6024191;23;20177;-83
2022/10/02 02:17:25;;;;;;;8.30;7.50;;;18.80;63.50;;;;;;6002156;23;20155;-83
2022/10/02 02:20:08;;;;;;;8.43;7.60;;;18.80;63.40;;;;;;6001877;23;20169;-84
2022/10/02 02:22:46;;;;;;;7.97;7.25;;;18.90;63.50;;;;;;6025748;23;20163;-83
2022/10/02 02:25:16;;;;;;;8.13;7.32;;;18.80;63.50;;;;;;6024295;23;20205;-83
2022/10/02 02:27:53;;;;;;;8.60;7.80;;;18.90;63.60;;;;;;6023048;23;20184;-83
2022/10/02 02:30:25;;;;;;;8.73;7.82;;;18.80;63.60;;;;;;5983448;23;20184;-83
2022/10/02 02:32:55;;;;;;;7.95;7.13;;;18.80;63.50;;;;;;5989621;23;20215;-83
2022/10/02 02:35:39;;;;;;;8.20;7.40;;;18.80;63.50;;;;;;5996274;24;20166;-83
2022/10/02 02:38:10;;;;;;;8.25;7.45;;;18.80;63.50;;;;;;6039889;23;20158;-83
2022/10/02 02:40:39;;;;;;;8.23;7.43;;;18.80;63.50;;;;;;6046373;23;20151;-83
2022/10/02 02:43:28;;;;;;;7.97;7.18;;;18.80;63.50;;;;;;6031751;23;20151;-83
2022/10/02 02:45:58;;;;;;;8.35;7.38;;;18.80;63.50;;;;;;6058268;23;20541;-83
2022/10/02 02:48:39;;;;;;;8.13;7.32;;;18.90;63.60;;;;;;6052441;23;20319;-83
2022/10/02 02:51:28;;;;;;;8.50;7.50;;;18.80;63.60;;;;;;6036198;23;20153;-83
2022/10/02 02:54:12;;;;;;;8.20;7.40;;;18.80;63.60;;;;;;6033950;23;20184;-83
2022/10/02 02:56:41;;;;;;;8.75;7.85;;;18.80;63.50;;;;;;6036414;23;20157;-84
2022/10/02 02:59:11;;;;;;;7.90;7.10;;;18.80;63.50;;;;;;6034222;23;20154;-83
2022/10/02 03:01:38;;;;;;;8.23;7.43;;;18.80;63.50;;;;;;6033800;23;20157;-83
2022/10/02 03:04:14;;;;;;;8.30;7.50;;;18.80;63.50;;;;;;6081400;23;20172;-83
2022/10/02 03:06:50;;;;;;;8.40;7.60;;;18.80;64.40;;;;;;6046170;23;20172;-83
2022/10/02 03:09:28;;;;;;;8.48;7.68;;;18.80;63.50;;;;;;6047711;23;20180;-83
2022/10/02 03:12:16;;;;;;;8.18;7.38;;;18.80;63.60;;;;;;6069068;23;20211;-83
2022/10/02 03:15:10;;;;;;;8.23;7.32;;;18.80;63.60;;;;;;6090569;23;20152;-83
2022/10/02 03:18:04;;;;;;;8.65;7.75;;;18.80;63.50;;;;;;6052047;23;20152;-83
2022/10/02 03:20:51;;;;;;;8.25;7.45;;;18.80;63.60;;;;;;6092060;23;20210;-83
2022/10/02 03:23:27;;;;;;;8.35;7.45;;;18.70;63.50;;;;;;6090975;23;20235;-83
2022/10/02 03:26:00;;;;;;;8.50;7.68;;;18.80;63.60;;;;;;6140175;23;20178;-83
2022/10/02 03:28:36;;;;;;;8.25;7.45;;;18.80;63.70;;;;;;6052413;23;20610;-83
2022/10/02 03:31:05;;;;;;;8.25;7.45;;;18.80;63.70;;;;;;6076438;23;20154;-84
2022/10/02 03:33:34;;;;;;;8.65;7.43;;;18.80;63.60;;;;;;6028993;23;20622;-84
2022/10/02 03:36:04;;;;;;;8.00;7.20;;;18.80;63.70;;;;;;6103651;23;20149;-83
2022/10/02 03:38:36;;;;;;;8.25;7.45;;;18.70;63.60;;;;;;6085612;23;20656;-82
2022/10/02 03:41:15;;;;;;;8.25;7.45;;;18.70;63.60;;;;;;6086061;23;20167;-84
2022/10/02 03:43:49;;;;;;;8.23;7.43;;;18.80;63.60;;;;;;6022112;23;20163;-83
2022/10/02 03:46:20;;;;;;;8.10;7.30;;;18.80;63.60;;;;;;6023839;23;20155;-83
2022/10/02 03:48:56;;;;;;;7.90;7.10;;;18.80;64.30;;;;;;5977031;23;20175;-83
2022/10/02 03:51:24;;;;;;;8.38;7.30;;;18.70;63.50;;;;;;6001202;23;20277;-83
2022/10/02 03:53:56;;;;;;;7.93;7.13;;;18.80;63.60;;;;;;5999375;23;20233;-83
2022/10/02 03:57:01;;;;;;;8.75;7.85;;;18.80;63.70;;;;;;5931506;23;20210;-83
2022/10/02 03:59:43;;;;;;;8.55;7.63;;;18.80;63.60;;;;;;6000562;23;20159;-83
2022/10/02 04:02:39;;;;;;;8.23;7.40;;;18.80;63.60;;;;;;5978752;23;20159;-83
2022/10/02 04:05:22;;;;;;;8.32;7.53;;;18.80;63.80;;;;;;6010563;23;20161;-83
2022/10/02 04:07:55;;;;;;;8.65;7.43;;;18.70;63.60;;;;;;6051895;23;20162;-83
2022/10/02 04:10:40;;;;;;;8.00;7.20;;;18.80;63.80;;;;;;5958723;23;20197;-83
2022/10/02 04:13:15;;;;;;;8.15;7.35;;;18.70;63.70;;;;;;5962819;23;20181;-83
2022/10/02 04:15:58;;;;;;;8.02;7.22;;;18.80;63.80;;;;;;6039184;23;20151;-83
2022/10/02 04:18:56;;;;;;;8.52;7.72;;;18.80;63.80;;;;;;6028807;23;20158;-83
2022/10/02 04:21:37;;;;;;;8.05;7.25;;;18.80;63.80;;;;;;6004150;23;20165;-83
2022/10/02 04:24:30;;;;;;;8.57;7.68;;;18.70;63.80;;;;;;6052315;23;20276;-83
2022/10/02 04:27:30;;;;;;;8.07;7.28;;;18.80;63.90;;;;;;6051211;23;20215;-83
2022/10/02 04:30:03;;;;;;;8.48;7.68;;;18.70;63.70;;;;;;6026681;23;20178;-83
2022/10/02 04:32:38;;;;;;;8.07;7.13;;;18.70;63.80;;;;;;6004814;23;20182;-83
2022/10/02 04:35:12;;;;;;;7.93;7.13;;;18.70;63.80;;;;;;6004365;23;20157;-83
2022/10/02 04:38:13;;;;;;;7.60;6.90;;;18.70;63.80;;;;;;6030141;23;20153;-84
2022/10/02 04:41:15;;;;;;;8.02;7.25;;;18.70;63.80;;;;;;6016423;23;20228;-83
2022/10/02 04:44:01;;;;;;;8.23;7.43;;;18.70;63.70;;;;;;6042161;23;20154;-83
2022/10/02 04:47:02;;;;;;;8.90;7.57;;;18.70;63.80;;;;;;6085382;23;20179;-83
2022/10/02 04:50:01;;;;;;;7.93;7.13;;;18.80;63.80;;;;;;6024902;23;20190;-83
2022/10/02 04:52:44;;;;;;;7.78;7.00;;;18.70;63.60;;;;;;6106798;23;20144;-83
2022/10/02 04:55:41;;;;;;;8.40;7.60;;;18.80;63.60;;;;;;6095875;23;20230;-83
2022/10/02 04:58:31;;;;;;;8.00;7.15;;;18.80;63.70;;;;;;6142884;23;20151;-83
2022/10/02 05:01:14;;;;;;;7.95;7.18;;;18.80;63.70;;;;;;6029016;23;20155;-83
2022/10/02 05:04:00;;;;;;;8.10;7.30;;;18.80;63.80;;;;;;6096725;23;20151;-83
2022/10/02 05:06:52;;;;;;;8.75;7.85;;;18.70;63.80;;;;;;6095126;23;20190;-83
2022/10/02 05:09:49;;;;;;;8.02;7.22;;;18.70;63.70;;;;;;6044306;23;20180;-82
2022/10/02 05:13:00;;;;;;;7.88;7.07;;;18.70;63.80;;;;;;6109331;23;20133;-83
2022/10/02 05:16:09;;;;;;;8.68;7.78;;;18.70;63.80;;;;;;6089448;23;20526;-83
2022/10/02 05:19:07;;;;;;;8.77;7.60;;;18.80;63.80;;;;;;6119146;23;20633;-83
2022/10/02 05:21:47;;;;;;;8.52;7.32;;;18.70;63.80;;;;;;6096692;23;20152;-84
2022/10/02 05:24:56;;;;;;;7.82;7.03;;;18.70;63.80;;;;;;6132571;23;20187;-84
2022/10/02 05:27:41;;;;;;;7.68;6.97;;;18.80;63.90;;;;;;6116446;23;20144;-83
2022/10/02 05:30:16;;;;;;;8.40;7.60;;;18.70;63.80;;;;;;6069308;23;20187;-84
2022/10/02 05:33:16;;;;;;;7.75;7.05;;;18.70;63.90;;;;;;6068813;23;20147;-83
2022/10/02 05:36:29;;;;;;;7.68;6.90;;;18.70;63.80;;;;;;6091230;23;20148;-83
2022/10/02 05:39:06;;;;;;;7.75;6.95;;;18.70;63.80;;;;;;6076243;23;20183;-83
2022/10/02 05:41:55;;;;;;;7.50;6.80;;;18.70;63.80;;;;;;6111798;23;20608;-83
2022/10/02 05:44:47;;;;;;;8.30;7.50;;;18.70;63.80;;;;;;6060472;23;20281;-83
2022/10/02 05:47:21;;;;;;;8.13;7.28;;;18.70;63.80;;;;;;6002050;23;20238;-83
2022/10/02 05:50:29;;;;;;;8.15;7.35;;;18.70;63.80;;;;;;5968135;24;20232;-83
2022/10/02 05:53:14;;;;;;;8.20;7.18;;;18.70;63.80;;;;;;5863431;24;20182;-83
2022/10/02 05:55:48;;;;;;;7.72;7.00;;;18.70;63.90;;;;;;5866993;24;20150;-83
2022/10/02 05:58:45;;;;;;;8.23;7.43;;;18.70;64.50;;;;;;5842719;24;20169;-83
2022/10/02 06:01:41;;;;;;;7.93;7.13;;;18.80;63.80;;;;;;5864724;24;20162;-83
2022/10/02 06:04:12;;;;;;;7.50;6.75;;;18.70;63.70;;;;;;5791229;24;20205;-83
2022/10/02 06:06:52;;;;;;;8.07;7.05;;;18.70;63.60;;;;;;5832929;24;20167;-83
2022/10/02 06:09:27;;;;;;;8.10;7.30;;;18.70;63.80;;;;;;5831824;24;20187;-83
2022/10/02 06:12:25;;;;;;;8.02;7.20;;;18.70;63.70;;;;;;5833488;24;20712;-83
2022/10/02 06:15:25;;;;;;;7.57;6.85;;;18.70;63.80;;;;;;5796579;24;20247;-83
2022/10/02 06:18:08;;;;;;;7.95;7.15;;;18.70;63.80;;;;;;5818882;24;20587;-83
2022/10/02 06:20:51;;;;;;;8.40;7.28;;;18.70;63.90;;;;;;5869409;24;20176;-83
2022/10/02 06:23:36;;;;;;;7.53;6.82;;;18.70;63.80;;;;;;5868050;24;20244;-83
2022/10/02 06:26:10;;;;;;;7.97;7.18;;;18.70;63.90;;;;;;5892802;24;20524;-82
2022/10/02 06:28:42;;;;;;;8.18;7.38;;;18.70;63.80;;;;;;5913529;23;20163;-83
2022/10/02 06:31:46;;;;;;;7.47;6.78;;;18.70;63.80;;;;;;6062548;23;20149;-83
2022/10/02 06:34:19;;;;;;;7.63;6.82;;;18.70;63.80;;;;;;6073851;23;20179;-83
2022/10/02 06:37:25;;;;;;;7.57;6.88;;;18.70;63.80;;;;;;6057025;23;20154;-83
2022/10/02 06:40:06;;;;;;;9.73;7.05;;;18.70;63.70;;;;;;6020433;23;20153;-83
2022/10/02 06:43:00;;;;;;;8.38;7.55;;;18.70;63.70;;;;;;6013567;23;20160;-83
2022/10/02 06:45:46;;;;;;;7.60;6.82;;;18.70;63.60;;;;;;6043210;23;20237;-83
2022/10/02 06:48:28;;;;;;;7.97;7.18;;;18.70;63.60;;;;;;6024249;23;20191;-84
2022/10/02 06:51:15;;;;;;;8.02;7.22;;;18.80;63.60;;;;;;6000603;23;20170;-83
2022/10/02 06:54:07;;;;;;;7.80;7.00;;;18.70;63.70;;;;;;6051835;23;20183;-83
2022/10/02 06:57:14;;;;;;;;;;;;;;;;;;;;;
2022/10/02 07:00:04;;;;;;;7.85;7.05;;;18.70;63.70;;;;;;5991029;23;20173;-83
2022/10/02 07:03:15;;;;;;;8.07;7.28;;;18.80;64.10;;;;;;6026566;23;20188;-82
2022/10/02 07:05:56;;;;;;;7.35;6.65;;;18.80;63.80;;;;;;6025861;23;20169;-83
2022/10/02 07:08:55;;;;;;;7.85;7.05;;;18.80;63.60;;;;;;6001437;23;20164;-85
2022/10/02 07:11:52;;;;;;;7.75;6.90;;;18.90;64.20;;;;;;6012878;23;20162;-83
2022/10/02 07:14:34;;;;;;;7.85;7.05;;;18.90;64.40;;;;;;5978661;23;20173;-83
2022/10/02 07:17:15;;;;;;;7.82;7.03;;;18.90;63.80;;;;;;6070088;23;20171;-82
2022/10/02 07:20:21;;;;;;;7.18;6.47;;;18.80;63.60;;;;;;6128518;23;20151;-82
2022/10/02 07:23:23;;;;;;;7.97;6.35;;;18.90;63.90;;;;;;6159165;23;20150;-84
2022/10/02 07:26:08;;;;;;;7.32;6.60;;;19.00;63.90;;;;;;6088779;23;20207;-82
2022/10/02 07:28:53;;;;;;;7.13;6.43;;;19.00;63.80;;;;;;6061220;23;20161;-83
2022/10/02 07:32:02;;;;;;;7.13;5.97;;;19.00;64.00;;;;;;6064215;23;20144;-83
2022/10/02 07:35:20;;;;;;;6.40;5.80;;;19.00;64.00;;;;;;6027917;23;20140;-83
2022/10/02 07:38:08;;;;;;;6.05;5.45;;;19.00;63.40;;;;;;6057228;23;20173;-83
2022/10/02 07:40:55;;;;;;;6.72;5.97;;;19.00;63.60;;;;;;5989423;23;20170;-82
2022/10/02 07:43:50;;;;;;;6.30;5.70;;;19.10;63.40;;;;;;6034983;23;20154;-82
2022/10/02 08:12:48;;;;;;;8.68;5.85;;;19.20;63.30;;;;;;6177693;22;20239;-83
2022/10/02 08:15:23;;;;;;;11.05;4.88;;;19.20;63.40;;;;;;6230938;23;20150;-82
2022/10/02 08:17:51;;;;;;;8.60;5.22;;;19.20;63.30;;;;;;6156906;23;20203;-81
2022/10/02 08:20:41;;;;;;;5.90;5.00;;;19.20;63.30;;;;;;6176914;23;20303;-80
2022/10/02 08:23:20;;;;;;;9.18;5.32;;;19.10;63.40;;;;;;6230889;23;20190;-80
2022/10/02 08:25:57;;;;;;;9.25;5.50;;;19.20;63.30;;;;;;6161056;23;20160;-81
2022/10/02 08:29:04;;;;;;;5.63;4.80;;;19.20;63.30;;;;;;6213109;23;20185;-81
2022/10/02 08:31:37;;;;;;;9.52;5.35;;;19.20;63.40;;;;;;6118993;23;20622;-80
2022/10/02 08:34:16;;;;;;;8.27;5.20;;;19.20;63.40;;;;;;6234026;23;20138;-81
2022/10/02 08:36:48;;;;;;;8.23;5.32;;;19.20;63.60;;;;;;6210312;23;20180;-81
2022/10/02 08:39:43;;;;;;;9.95;5.55;;;19.10;63.50;;;;;;6205861;23;20154;-81
2022/10/02 08:42:45;;;;;;;6.13;4.88;;;19.20;63.60;;;;;;6208524;23;20189;-81
2022/10/02 08:45:28;;;;;;;8.50;5.70;;;19.10;63.60;;;;;;6215624;23;20154;-81
2022/10/02 08:48:34;;;;;;;9.02;4.90;;;19.20;63.70;;;;;;6184945;23;20201;-81
2022/10/02 08:51:38;;;;;;;7.13;5.05;;;19.20;63.80;;;;;;6207443;23;20185;-81
2022/10/02 08:54:24;;;;;;;11.73;5.40;;;19.10;63.70;;;;;;6151710;23;20151;-82
2022/10/02 08:57:05;;;;;;;6.80;4.88;;;19.20;64.00;;;;;;6129207;23;20220;-81
2022/10/02 09:00:13;;;;;;;6.93;4.90;;;19.20;64.10;;;;;;6120358;23;20207;-83
2022/10/02 09:03:14;;;;;;;6.05;5.30;;;19.10;64.10;;;;;;6149536;23;20116;-82
2022/10/02 09:06:14;;;;;;;6.95;5.07;;;19.10;64.20;;;;;;6167702;23;20486;-82
2022/10/02 09:09:06;;;;;;;7.97;5.50;;;19.10;64.10;;;;;;6095715;23;20154;-82
2022/10/02 09:12:13;;;;;;;11.02;5.40;;;19.20;64.60;;;;;;6046524;23;20716;-81
2022/10/02 09:14:54;;;;;;;10.32;5.25;;;19.10;64.50;;;;;;6162791;23;20237;-82
2022/10/02 09:17:43;;;;;;;8.55;5.75;;;19.10;64.70;;;;;;6162201;23;20478;-81
2022/10/02 09:20:39;;;;;;;6.30;5.20;;;19.10;64.90;;;;;;6113804;23;20151;-82
2022/10/02 09:23:44;;;;;;;8.02;5.32;;;19.10;65.00;;;;;;6111262;23;20171;-81
2022/10/02 09:26:40;;;;;;;9.32;5.45;;;19.10;65.10;;;;;;6192524;23;20172;-82
2022/10/02 09:29:33;;;;;;;5.78;5.13;;;19.10;65.10;;;;;;6116169;23;20181;-81
2022/10/02 09:32:14;;;;;;;8.95;5.50;;;19.20;65.40;;;;;;6203075;23;20162;-81
2022/10/02 09:35:04;;;;;;;7.25;5.03;;;19.10;65.30;;;;;;6223246;23;20481;-81
2022/10/02 09:38:05;;;;;;;9.45;5.07;;;19.20;65.20;;;;;;6198099;23;20196;-81
2022/10/02 09:40:53;;;;;;;8.45;4.93;;;19.20;65.20;;;;;;6222449;23;20153;-81
2022/10/02 09:43:30;;;;;;;11.88;5.15;;;19.20;65.30;;;;;;6194880;23;20143;-81
2022/10/02 09:46:18;;;;;;;9.55;5.07;;;19.20;65.40;;;;;;6196043;23;20130;-81
2022/10/02 09:49:15;;;;;;;8.38;4.68;;;19.20;65.40;;;;;;6169921;23;20454;-80
2022/10/02 09:52:05;;;;;;;8.50;5.32;;;19.20;65.50;;;;;;6224571;23;20233;-83
2022/10/02 09:55:08;;;;;;;8.32;4.80;;;19.20;65.50;;;;;;6224524;23;20470;-82
2022/10/02 09:58:06;;;;;;;6.82;5.07;;;19.20;65.50;;;;;;6220517;23;20592;-81
2022/10/02 10:00:50;;;;;;;8.73;5.03;;;19.20;65.50;;;;;;6203808;23;20142;-81
2022/10/02 10:03:40;;;;;;;6.43;4.50;;;19.20;65.50;;;;;;6197882;23;20165;-82
2022/10/02 10:06:32;;;;;;;7.15;4.68;;;19.20;65.50;;;;;;6220148;23;20204;-81
2022/10/02 10:09:23;;;;;;;5.63;5.03;;;19.20;65.60;;;;;;6174364;23;20182;-81
2022/10/02 10:12:10;;;;;;;5.47;4.63;;;19.20;65.70;;;;;;6195404;23;20481;-81
2022/10/02 10:15:06;;;;;;;5.10;4.60;;;19.30;65.80;;;;;;6202295;23;20232;-81
2022/10/02 10:18:09;;;;;;;5.05;4.50;;;19.30;65.90;;;;;;6226636;23;20134;-83
2022/10/02 10:20:56;;;;;;;5.50;3.90;;;19.30;65.70;;;;;;6203007;23;20149;-81
2022/10/02 10:23:58;;;;;;;7.68;4.40;;;19.30;65.60;;;;;;6227613;23;20589;-81
2022/10/02 10:26:57;;;;;;;6.95;4.43;;;19.30;65.60;;;;;;6229261;23;20133;-82
2022/10/02 10:29:57;;;;;;;4.70;4.28;;;19.30;65.50;;;;;;6229833;23;20241;-82
2022/10/02 10:32:55;;;;;;;5.30;4.38;;;19.30;65.60;;;;;;6227201;23;20589;-81
2022/10/02 10:35:23;;;;;;;7.03;4.43;;;19.30;65.60;;;;;;6228420;23;20300;-81
2022/10/02 10:38:31;;;;;;;5.10;4.22;;;19.30;65.50;;;;;;6204444;23;20477;-81
2022/10/02 10:41:18;;;;;;;9.77;4.65;;;19.30;65.60;;;;;;6229880;23;20158;-81
2022/10/02 10:44:18;;;;;;;8.82;4.43;;;19.30;65.60;;;;;;6208776;23;20667;-81
2022/10/02 10:47:17;;;;;;;7.28;4.78;;;19.30;65.70;;;;;;6208734;23;20165;-81
2022/10/02 10:50:02;;;;;;;6.88;4.07;;;19.30;65.80;;;;;;6188137;23;20180;-82
2022/10/02 10:52:44;;;;;;;4.85;4.28;;;19.30;65.60;;;;;;6203776;23;20146;-82
2022/10/02 10:55:31;;;;;;;5.72;4.40;;;19.40;65.70;;;;;;6228121;23;20141;-82
2022/10/02 10:58:08;;;;;;;5.93;4.18;;;19.30;65.90;;;;;;6185641;23;20142;-82
2022/10/02 11:01:06;;;;;;;5.53;4.30;;;19.30;65.90;;;;;;6203269;23;20199;-83
2022/10/02 11:03:57;;;;;;;6.60;4.75;;;19.30;66.00;;;;;;6227950;23;20131;-83
2022/10/02 11:06:51;;;;;;;7.05;4.30;;;19.40;66.10;;;;;;6182025;23;20184;-82
2022/10/02 11:09:32;;;;;;;5.97;4.40;;;19.30;66.00;;;;;;6185859;23;20173;-82
2022/10/02 11:12:15;;;;;;;5.93;4.50;;;19.40;66.10;;;;;;6203394;23;20142;-82
2022/10/02 11:15:16;;;;;;;5.45;4.75;;;19.30;66.00;;;;;;6152994;23;20221;-81
2022/10/02 11:18:05;;;;;;;8.00;4.43;;;19.40;66.20;;;;;;6160245;23;20536;-82
2022/10/02 11:20:45;;;;;;;7.95;4.15;;;19.30;66.10;;;;;;6229037;23;20145;-82
2022/10/02 11:23:39;;;;;;;5.22;4.55;;;19.40;66.20;;;;;;6157627;23;20150;-82
2022/10/02 11:26:24;;;;;;;5.20;4.30;;;19.40;66.50;;;;;;6134174;23;20544;-81
2022/10/02 11:29:02;;;;;;;5.07;4.53;;;19.40;66.50;;;;;;6225911;23;20165;-82
2022/10/02 11:31:29;;;;;;;5.00;4.50;;;19.40;66.30;;;;;;6226797;23;20134;-82
2022/10/02 11:34:06;;;;;;;5.97;5.10;;;19.30;66.50;;;;;;6204635;23;20134;-82
2022/10/02 11:37:11;;;;;;;5.97;5.00;;;19.40;66.60;;;;;;6151718;23;20150;-81
2022/10/02 11:40:12;;;;;;;7.03;4.72;;;19.40;66.70;;;;;;6177209;23;20572;-82
2022/10/02 11:42:55;;;;;;;9.52;4.97;;;19.40;66.60;;;;;;6201654;23;20240;-83
2022/10/02 11:46:00;;;;;;;6.03;5.30;;;19.40;66.50;;;;;;6182232;23;20609;-82
2022/10/02 11:48:45;;;;;;;5.95;5.35;;;19.40;66.30;;;;;;6202698;23;20200;-82
2022/10/02 11:51:34;;;;;;;6.43;5.47;;;19.50;66.40;;;;;;6172940;23;20242;-82
2022/10/02 11:54:21;;;;;;;6.65;5.95;;;19.40;66.20;;;;;;6173023;23;20150;-81
2022/10/02 11:57:07;;;;;;;6.60;5.57;;;19.40;66.20;;;;;;6172444;23;20150;-81
2022/10/02 11:59:57;;;;;;;7.00;5.70;;;19.40;66.20;;;;;;6148274;23;20202;-81
2022/10/02 12:02:34;;;;;;;6.38;5.63;;;19.40;66.00;;;;;;6146228;23;20285;-81
2022/10/02 12:05:29;;;;;;;6.75;6.00;;;19.40;66.10;;;;;;6171971;23;20145;-82
2022/10/02 12:08:00;;;;;;;7.00;6.30;;;19.40;66.00;;;;;;6124300;23;20201;-82
2022/10/02 12:10:38;;;;;;;6.60;5.85;;;19.40;65.90;;;;;;6171177;23;20201;-82
2022/10/02 12:13:38;;;;;;;6.78;5.70;;;19.40;65.80;;;;;;6170947;23;20198;-82
2022/10/02 12:16:34;;;;;;;6.90;6.15;;;19.40;66.10;;;;;;6163775;23;20381;-82
2022/10/02 12:19:30;;;;;;;6.80;6.10;;;19.40;65.90;;;;;;6097483;23;20185;-84
2022/10/02 12:28:18;;;;;;;6.00;5.40;;;19.40;65.70;;;;;;6174367;23;20585;-84
2022/10/02 12:31:00;;;;;;;6.47;5.78;;;19.40;65.60;;;;;;6215966;23;20185;-83
2022/10/02 12:33:52;;;;;;;6.55;4.90;;;19.40;65.60;;;;;;6142485;23;20158;-82
2022/10/02 12:36:32;;;;;;;6.10;5.53;;;19.40;64.90;;;;;;6215563;23;20217;-84
2022/10/02 12:39:13;;;;;;;6.15;5.55;;;19.40;65.20;;;;;;6168292;23;20220;-82
2022/10/02 12:41:58;;;;;;;6.38;5.78;;;19.40;65.10;;;;;;6166005;23;20153;-83
2022/10/02 12:44:43;;;;;;;5.93;5.32;;;19.50;65.20;;;;;;6166710;23;20142;-85
2022/10/02 12:47:43;;;;;;;8.73;5.40;;;19.40;65.30;;;;;;6192555;23;20146;-83
2022/10/02 12:50:46;;;;;;;7.43;5.60;;;19.40;65.30;;;;;;6143835;23;20212;-83
2022/10/02 12:53:39;;;;;;;6.30;5.70;;;19.30;65.10;;;;;;6196628;23;20181;-84
2022/10/02 12:56:44;;;;;;;6.28;5.68;;;19.40;64.80;;;;;;6219647;23;20173;-85
2022/10/02 12:59:19;;;;;;;6.88;5.95;;;19.30;64.90;;;;;;6219015;23;20201;-82
2022/10/02 13:02:15;;;;;;;6.43;5.82;;;19.40;64.90;;;;;;6174910;23;20144;-84
2022/10/02 13:05:13;;;;;;;7.15;6.13;;;19.40;65.00;;;;;;6202555;23;20146;-83
2022/10/02 13:07:54;;;;;;;8.27;6.18;;;19.50;65.10;;;;;;6127923;23;20197;-82
2022/10/02 13:10:25;;;;;;;6.68;5.97;;;19.40;65.00;;;;;;6225751;23;20165;-85
2022/10/02 13:13:16;;;;;;;8.73;6.60;;;19.40;65.00;;;;;;6153621;23;20194;-81
2022/10/02 13:16:14;;;;;;;6.70;6.00;;;19.40;65.00;;;;;;6207854;23;20170;-82
2022/10/02 13:19:14;;;;;;;6.80;5.97;;;19.40;65.00;;;;;;6230346;23;20131;-81
2022/10/02 13:22:21;;;;;;;6.50;5.78;;;19.50;64.90;;;;;;6119298;23;20156;-81
2022/10/02 13:25:33;;;;;;;6.97;6.28;;;19.50;64.90;;;;;;6168921;23;20148;-80
2022/10/02 13:28:30;;;;;;;5.47;4.97;;;19.40;64.70;;;;;;6168492;23;20159;-81
2022/10/02 13:31:55;;;;;;;6.82;5.68;;;19.50;64.80;;;;;;6144875;23;20318;-81
2022/10/02 13:35:03;;;;;;;6.95;6.32;;;19.50;64.80;;;;;;6144476;23;20254;-80
2022/10/02 13:38:25;;;;;;;6.93;6.05;;;19.50;64.90;;;;;;6128960;23;20155;-79
2022/10/02 13:41:17;;;;;;;7.10;6.40;;;19.50;64.90;;;;;;6147811;23;20162;-81
2022/10/02 13:44:23;;;;;;;7.13;6.43;;;19.50;64.90;;;;;;6002371;23;20158;-81
2022/10/02 13:47:25;;;;;;;7.15;6.45;;;19.50;64.70;;;;;;5991057;23;20178;-83
2022/10/02 13:50:10;;;;;;;7.03;6.32;;;19.50;64.70;;;;;;5944099;24;20263;-79
2022/10/02 13:52:50;;;;;;;6.70;6.00;;;19.50;64.70;;;;;;5917939;24;20176;-80
2022/10/02 13:56:01;;;;;;;6.60;5.93;;;19.50;64.60;;;;;;5892480;24;20168;-80
2022/10/02 13:58:52;;;;;;;6.90;6.20;;;19.50;64.70;;;;;;5909415;24;20553;-83
2022/10/02 14:01:58;;;;;;;7.13;6.40;;;19.50;64.50;;;;;;5907827;24;20160;-83
2022/10/02 14:05:24;;;;;;;6.90;6.20;;;19.50;64.70;;;;;;5932447;24;20168;-82
2022/10/02 14:08:32;;;;;;;6.90;6.20;;;19.60;64.80;;;;;;5937057;24;20200;-83
2022/10/02 14:11:34;;;;;;;8.05;6.80;;;19.50;64.80;;;;;;5910467;24;20175;-84
2022/10/02 14:14:21;;;;;;;8.05;6.50;;;19.60;64.90;;;;;;5929727;24;20680;-83
2022/10/02 14:17:26;;;;;;;7.28;6.57;;;19.50;64.90;;;;;;5929318;24;20160;-84
2022/10/02 14:20:31;;;;;;;9.18;6.60;;;19.50;65.10;;;;;;5962958;24;20167;-84
2022/10/02 14:23:27;;;;;;;8.32;6.75;;;19.60;65.00;;;;;;5939851;24;20184;-85
2022/10/02 14:26:37;;;;;;;7.57;6.80;;;19.50;65.20;;;;;;5988653;24;20200;-84
2022/10/02 14:29:25;;;;;;;7.93;6.80;;;19.50;65.00;;;;;;5945865;24;20254;-85
2022/10/02 14:32:08;;;;;;;8.05;6.88;;;19.50;65.10;;;;;;5942466;24;20144;-83
2022/10/02 14:35:07;;;;;;;7.40;6.50;;;19.50;65.00;;;;;;5967062;24;20203;-83
2022/10/02 14:38:08;;;;;;;7.60;6.68;;;19.50;65.00;;;;;;5921286;24;20155;-83
2022/10/02 14:40:56;;;;;;;7.75;6.95;;;19.50;64.90;;;;;;5967504;24;20160;-84
2022/10/02 14:43:41;;;;;;;7.68;6.88;;;19.50;64.90;;;;;;5941858;24;20513;-85
2022/10/02 14:46:20;;;;;;;7.88;7.07;;;19.60;64.90;;;;;;5937273;23;20154;-85
2022/10/02 14:49:30;;;;;;;8.50;6.70;;;19.50;64.90;;;;;;6023940;23;20157;-84
2022/10/02 14:52:18;;;;;;;7.60;6.90;;;19.60;64.80;;;;;;5996156;23;20154;-85
2022/10/02 14:55:07;;;;;;;9.35;7.30;;;19.40;65.10;;;;;;6043951;23;20239;-84
2022/10/02 14:57:43;;;;;;;8.48;7.50;;;19.40;64.80;;;;;;6045354;23;20149;-85
2022/10/02 15:00:17;;;;;;;7.88;7.07;;;19.50;64.80;;;;;;6042681;23;20149;-84
2022/10/02 15:03:01;;;;;;;8.20;7.15;;;19.50;64.80;;;;;;6044925;23;20154;-85
2022/10/02 15:06:13;;;;;;;7.53;6.82;;;19.50;64.80;;;;;;6023343;23;20150;-84